Panda — PBCS — position and weather

sailwx.info

Track history (hours):
 
Tides and Currents Weather Stations Pressure Air Temp Water Temp Dewpoint Dewpoint Depression Visibility Wind Speed Wind Dir Waves Ship Positions

Panda

Last reported at 2017-Feb-21 21:33 UTC. Time now 2017-Feb-21 23:19 UTC.
Position N 58°10' E 011°51'.

Length 89 m; draft 3 m.

Type: Cargo ship. MMSI: 245014000.

Date/timePositionNaut miles runAvg speedWind from/ knotsBaromVisibWave heightAir tempDewpointWater temp
2017-Feb-21 21:33N 58°10' E 011°51'1110.8
2017-Feb-21 20:32N 57°60' E 011°46'1010.6
2017-Feb-21 19:33N 57°53' E 011°30'9 8.9
2017-Feb-21 18:33N 58°00' E 011°19'1010.1
2017-Feb-21 17:33N 58°10' E 011°15'8 8.1
2017-Feb-21 16:33N 58°16' E 011°25'1 1.0
2017-Feb-21 15:19N 58°16' E 011°28'0 0.0
2017-Feb-21 02:16N 58°16' E 011°28'0 0.0
2017-Feb-20 13:31N 58°16' E 011°28'0 0.0
2017-Feb-19 23:33N 58°16' E 011°28'1 0.1
2017-Feb-19 12:16N 58°16' E 011°26'6 8.9
2017-Feb-19 11:33N 58°15' E 011°14'9 9.6
2017-Feb-19 10:33N 58°09' E 010°60'9 9.3
2017-Feb-19 09:33N 58°03' E 010°46'9 8.6
2017-Feb-19 08:33N 57°58' E 010°33'14 9.6
2017-Feb-19 07:07N 57°50' E 010°12'5010.1
2017-Feb-19 02:07N 57°20' E 008°57'6 9.9
2017-Feb-19 01:32N 57°16' E 008°49'90 9.6
2017-Feb-18 16:12N 55°57' E 007°33'6 9.3
2017-Feb-18 15:33N 55°51' E 007°29'9 9.2
2017-Feb-18 14:33N 55°42' E 007°23'9 9.0
2017-Feb-18 13:33N 55°34' E 007°17'9 9.2
2017-Feb-18 12:33N 55°25' E 007°12'9 9.4
2017-Feb-18 11:33N 55°17' E 007°06'10 9.5
2017-Feb-18 10:33N 55°08' E 007°00'10 9.6
2017-Feb-18 09:33N 54°59' E 006°54'12 9.7
2017-Feb-18 08:19N 54°48' E 006°46'76 8.6
2017-Feb-17 23:33N 53°32' E 006°44'8 8.1
2017-Feb-17 22:33N 53°26' E 006°54'8 8.0
2017-Feb-17 21:33N 53°19' E 006°59'2 2.0
2017-Feb-17 20:29N 53°20' E 006°56'0 0.0
2017-Feb-17 19:32N 53°20' E 006°56'0 0.0
2017-Feb-17 18:29N 53°20' E 006°56'0 0.0
2017-Feb-17 17:32N 53°20' E 006°56'0 0.0
2017-Feb-17 16:29N 53°20' E 006°56'0 0.0
2017-Feb-17 15:32N 53°20' E 006°56'0 0.0
2017-Feb-17 14:32N 53°20' E 006°56'0 0.0
2017-Feb-17 13:32N 53°20' E 006°56'0 0.0
2017-Feb-17 12:26N 53°20' E 006°56'0 0.0
2017-Feb-17 11:32N 53°20' E 006°56'0 0.0
2017-Feb-17 10:32N 53°20' E 006°56'0 0.0
2017-Feb-17 09:32N 53°20' E 006°56'0 0.0
2017-Feb-17 08:32N 53°20' E 006°56'0 0.0
2017-Feb-17 07:32N 53°20' E 006°56'0 0.0
2017-Feb-17 06:29N 53°20' E 006°56'0 0.0
2017-Feb-17 05:32N 53°20' E 006°56'0 0.0
2017-Feb-17 04:32N 53°20' E 006°56'0 0.0
2017-Feb-17 03:32N 53°20' E 006°56'0 0.0
2017-Feb-17 02:29N 53°20' E 006°56'0 0.0
2017-Feb-17 01:32N 53°20' E 006°56'0 0.0
2017-Feb-17 00:32N 53°20' E 006°56'0 0.0
2017-Feb-16 23:32N 53°20' E 006°56'0 0.0
2017-Feb-16 22:32N 53°20' E 006°56'0 0.0
2017-Feb-16 21:32N 53°20' E 006°56'0 0.0
2017-Feb-16 20:32N 53°20' E 006°56'0 0.0
2017-Feb-16 19:23N 53°20' E 006°56'0 0.0
2017-Feb-16 18:29N 53°20' E 006°56'0 0.0
2017-Feb-16 17:32N 53°20' E 006°56'0 0.0
2017-Feb-16 16:31N 53°20' E 006°56'0 0.0
2017-Feb-16 15:31N 53°20' E 006°56'0 0.0
2017-Feb-16 14:28N 53°20' E 006°56'0 0.0
2017-Feb-16 13:31N 53°20' E 006°56'0 0.0
2017-Feb-16 12:31N 53°20' E 006°56'0 0.0
2017-Feb-16 11:31N 53°20' E 006°56'0 0.0
2017-Feb-16 10:31N 53°20' E 006°56'0 0.0
2017-Feb-16 09:31N 53°20' E 006°56'2 2.2
2017-Feb-16 08:33N 53°19' E 006°59'8 8.1
2017-Feb-16 07:33N 53°26' E 006°54'42 5.7
2017-Feb-16 00:12N 53°53' E 007°50'6 9.5
2017-Feb-15 23:33N 53°51' E 007°60'8 8.0
2017-Feb-15 22:33N 53°46' E 008°10'1010.4
2017-Feb-15 21:33N 53°40' E 008°24'1010.2
2017-Feb-15 20:33N 53°32' E 008°35'2 1.9
2017-Feb-15 19:32N 53°30' E 008°35'0 0.0
2017-Feb-15 18:26N 53°30' E 008°35'0 0.0
2017-Feb-15 17:32N 53°30' E 008°35'0 0.0
2017-Feb-15 16:31N 53°30' E 008°35'0 0.0
2017-Feb-15 15:31N 53°30' E 008°35'0 0.0
2017-Feb-15 14:31N 53°30' E 008°35'0 0.0
2017-Feb-15 13:31N 53°30' E 008°35'0 0.0
2017-Feb-15 12:31N 53°30' E 008°35'0 0.0
2017-Feb-15 11:31N 53°30' E 008°35'0 0.0
2017-Feb-15 10:31N 53°30' E 008°35'0 0.0
2017-Feb-15 09:31N 53°30' E 008°35'0 0.0
2017-Feb-15 08:31N 53°30' E 008°35'0 0.0
2017-Feb-15 07:31N 53°30' E 008°35'0 0.0
2017-Feb-15 06:31N 53°30' E 008°35'0 0.0
2017-Feb-15 05:31N 53°30' E 008°35'0 0.0
2017-Feb-15 04:31N 53°30' E 008°35'0 0.0
2017-Feb-15 03:31N 53°30' E 008°35'0 0.0
2017-Feb-15 02:31N 53°30' E 008°35'0 0.0
2017-Feb-15 01:31N 53°30' E 008°35'0 0.0
2017-Feb-15 00:31N 53°30' E 008°35'0 0.0
2017-Feb-14 23:31N 53°30' E 008°35'0 0.0
2017-Feb-14 22:31N 53°30' E 008°35'0 0.0
2017-Feb-14 21:31N 53°30' E 008°35'0 0.0
2017-Feb-14 20:31N 53°30' E 008°35'0 0.0
2017-Feb-14 19:31N 53°30' E 008°35'0 0.0
2017-Feb-14 18:31N 53°30' E 008°35'0 0.0
2017-Feb-14 17:31N 53°30' E 008°35'0 0.0
2017-Feb-14 16:31N 53°30' E 008°35'0 0.0
2017-Feb-14 15:31N 53°30' E 008°35'0 0.0
2017-Feb-14 14:31N 53°30' E 008°35'0 0.0
2017-Feb-14 13:31N 53°30' E 008°35'0 0.0
2017-Feb-14 12:31N 53°30' E 008°35'0 0.0
2017-Feb-14 11:31N 53°30' E 008°35'0 0.0
2017-Feb-14 10:31N 53°30' E 008°35'0 0.0
2017-Feb-14 09:31N 53°30' E 008°35'0 0.0
2017-Feb-14 08:31N 53°30' E 008°35'0 0.0
2017-Feb-14 07:31N 53°30' E 008°35'0 0.0
2017-Feb-14 06:34N 53°30' E 008°35'0 0.0
2017-Feb-14 05:33N 53°30' E 008°35'0 0.0
2017-Feb-14 04:33N 53°30' E 008°35'0 0.0
2017-Feb-14 03:33N 53°30' E 008°35'0 0.0
2017-Feb-14 02:33N 53°30' E 008°35'0 0.0
2017-Feb-14 01:33N 53°30' E 008°35'0 0.0
2017-Feb-14 00:33N 53°30' E 008°35'0 0.0
2017-Feb-13 23:33N 53°30' E 008°35'0 0.0
2017-Feb-13 22:33N 53°30' E 008°35'0 0.0
2017-Feb-13 21:33N 53°30' E 008°35'0 0.0
2017-Feb-13 20:33N 53°30' E 008°35'0 0.0
2017-Feb-13 19:33N 53°30' E 008°35'0 0.0
2017-Feb-13 18:33N 53°30' E 008°35'0 0.0
2017-Feb-13 17:33N 53°30' E 008°35'2 2.0
2017-Feb-13 16:33N 53°32' E 008°35'4 3.5
2017-Feb-13 15:33N 53°35' E 008°31'1010.1
2017-Feb-13 14:33N 53°42' E 008°19'1010.4
2017-Feb-13 13:33N 53°49' E 008°07'8 7.7
2017-Feb-13 12:33N 53°56' E 008°02'8 8.3
2017-Feb-13 11:33N 54°00' E 008°14'9 9.1
2017-Feb-13 10:33N 53°59' E 008°29'9 9.2
2017-Feb-13 09:33N 53°53' E 008°42'1211.9
2017-Feb-13 08:34N 53°52' E 009°02'4 4.3
2017-Feb-13 07:34N 53°54' E 009°09'6 5.7
2017-Feb-13 06:33N 53°58' E 009°15'8 8.4
2017-Feb-13 05:33N 54°06' E 009°20'48 5.9
2017-Feb-12 21:24N 54°33' E 010°29'910.8
2017-Feb-12 20:34N 54°35' E 010°44'1212.1
2017-Feb-12 19:34N 54°36' E 011°04'1111.5
2017-Feb-12 18:34N 54°33' E 011°23'1111.0
2017-Feb-12 17:34N 54°29' E 011°41'1110.9
2017-Feb-12 16:33N 54°27' E 011°60'10 9.9
2017-Feb-12 15:34N 54°32' E 012°14'5710.9
2017-Feb-12 10:20N 54°41' E 013°51'910.9
2017-Feb-12 09:29N 54°40' E 014°07'1110.7
2017-Feb-12 08:27N 54°38' E 014°26'  
Track history (hours):
 
Tides and Currents Weather Stations Pressure Air Temp Water Temp Dewpoint Dewpoint Depression Visibility Wind Speed Wind Dir Waves Ship Positions

Panda

Last reported at 2017-Feb-21 21:33 UTC. Time now 2017-Feb-21 23:19 UTC.
Position N 58°10' E 011°51'.

Length 89 m; draft 3 m.

Type: Cargo ship. MMSI: 245014000.

Date/timePositionNaut miles runAvg speedWind from/ knotsBaromVisibWave heightAir tempDewpointWater temp
2017-Feb-21 21:33N 58°10' E 011°51'1110.8
2017-Feb-21 20:32N 57°60' E 011°46'1010.6
2017-Feb-21 19:33N 57°53' E 011°30'9 8.9
2017-Feb-21 18:33N 58°00' E 011°19'1010.1
2017-Feb-21 17:33N 58°10' E 011°15'8 8.1
2017-Feb-21 16:33N 58°16' E 011°25'1 1.0
2017-Feb-21 15:19N 58°16' E 011°28'0 0.0
2017-Feb-21 02:16N 58°16' E 011°28'0 0.0
2017-Feb-20 13:31N 58°16' E 011°28'0 0.0
2017-Feb-19 23:33N 58°16' E 011°28'1 0.1
2017-Feb-19 12:16N 58°16' E 011°26'6 8.9
2017-Feb-19 11:33N 58°15' E 011°14'9 9.6
2017-Feb-19 10:33N 58°09' E 010°60'9 9.3
2017-Feb-19 09:33N 58°03' E 010°46'9 8.6
2017-Feb-19 08:33N 57°58' E 010°33'14 9.6
2017-Feb-19 07:07N 57°50' E 010°12'5010.1
2017-Feb-19 02:07N 57°20' E 008°57'6 9.9
2017-Feb-19 01:32N 57°16' E 008°49'90 9.6
2017-Feb-18 16:12N 55°57' E 007°33'6 9.3
2017-Feb-18 15:33N 55°51' E 007°29'9 9.2
2017-Feb-18 14:33N 55°42' E 007°23'9 9.0
2017-Feb-18 13:33N 55°34' E 007°17'9 9.2
2017-Feb-18 12:33N 55°25' E 007°12'9 9.4
2017-Feb-18 11:33N 55°17' E 007°06'10 9.5
2017-Feb-18 10:33N 55°08' E 007°00'10 9.6
2017-Feb-18 09:33N 54°59' E 006°54'12 9.7
2017-Feb-18 08:19N 54°48' E 006°46'76 8.6
2017-Feb-17 23:33N 53°32' E 006°44'8 8.1
2017-Feb-17 22:33N 53°26' E 006°54'8 8.0
2017-Feb-17 21:33N 53°19' E 006°59'2 2.0
2017-Feb-17 20:29N 53°20' E 006°56'0 0.0
2017-Feb-17 19:32N 53°20' E 006°56'0 0.0
2017-Feb-17 18:29N 53°20' E 006°56'0 0.0
2017-Feb-17 17:32N 53°20' E 006°56'0 0.0
2017-Feb-17 16:29N 53°20' E 006°56'0 0.0
2017-Feb-17 15:32N 53°20' E 006°56'0 0.0
2017-Feb-17 14:32N 53°20' E 006°56'0 0.0
2017-Feb-17 13:32N 53°20' E 006°56'0 0.0
2017-Feb-17 12:26N 53°20' E 006°56'0 0.0
2017-Feb-17 11:32N 53°20' E 006°56'0 0.0
2017-Feb-17 10:32N 53°20' E 006°56'0 0.0
2017-Feb-17 09:32N 53°20' E 006°56'0 0.0
2017-Feb-17 08:32N 53°20' E 006°56'0 0.0
2017-Feb-17 07:32N 53°20' E 006°56'0 0.0
2017-Feb-17 06:29N 53°20' E 006°56'0 0.0
2017-Feb-17 05:32N 53°20' E 006°56'0 0.0
2017-Feb-17 04:32N 53°20' E 006°56'0 0.0
2017-Feb-17 03:32N 53°20' E 006°56'0 0.0
2017-Feb-17 02:29N 53°20' E 006°56'0 0.0
2017-Feb-17 01:32N 53°20' E 006°56'0 0.0
2017-Feb-17 00:32N 53°20' E 006°56'0 0.0
2017-Feb-16 23:32N 53°20' E 006°56'0 0.0
2017-Feb-16 22:32N 53°20' E 006°56'0 0.0
2017-Feb-16 21:32N 53°20' E 006°56'0 0.0
2017-Feb-16 20:32N 53°20' E 006°56'0 0.0
2017-Feb-16 19:23N 53°20' E 006°56'0 0.0
2017-Feb-16 18:29N 53°20' E 006°56'0 0.0
2017-Feb-16 17:32N 53°20' E 006°56'0 0.0
2017-Feb-16 16:31N 53°20' E 006°56'0 0.0
2017-Feb-16 15:31N 53°20' E 006°56'0 0.0
2017-Feb-16 14:28N 53°20' E 006°56'0 0.0
2017-Feb-16 13:31N 53°20' E 006°56'0 0.0
2017-Feb-16 12:31N 53°20' E 006°56'0 0.0
2017-Feb-16 11:31N 53°20' E 006°56'0 0.0
2017-Feb-16 10:31N 53°20' E 006°56'0 0.0
2017-Feb-16 09:31N 53°20' E 006°56'2 2.2
2017-Feb-16 08:33N 53°19' E 006°59'8 8.1
2017-Feb-16 07:33N 53°26' E 006°54'42 5.7
2017-Feb-16 00:12N 53°53' E 007°50'6 9.5
2017-Feb-15 23:33N 53°51' E 007°60'8 8.0
2017-Feb-15 22:33N 53°46' E 008°10'1010.4
2017-Feb-15 21:33N 53°40' E 008°24'1010.2
2017-Feb-15 20:33N 53°32' E 008°35'2 1.9
2017-Feb-15 19:32N 53°30' E 008°35'0 0.0
2017-Feb-15 18:26N 53°30' E 008°35'0 0.0
2017-Feb-15 17:32N 53°30' E 008°35'0 0.0
2017-Feb-15 16:31N 53°30' E 008°35'0 0.0
2017-Feb-15 15:31N 53°30' E 008°35'0 0.0
2017-Feb-15 14:31N 53°30' E 008°35'0 0.0
2017-Feb-15 13:31N 53°30' E 008°35'0 0.0
2017-Feb-15 12:31N 53°30' E 008°35'0 0.0
2017-Feb-15 11:31N 53°30' E 008°35'0 0.0
2017-Feb-15 10:31N 53°30' E 008°35'0 0.0
2017-Feb-15 09:31N 53°30' E 008°35'0 0.0
2017-Feb-15 08:31N 53°30' E 008°35'0 0.0
2017-Feb-15 07:31N 53°30' E 008°35'0 0.0
2017-Feb-15 06:31N 53°30' E 008°35'0 0.0
2017-Feb-15 05:31N 53°30' E 008°35'0 0.0
2017-Feb-15 04:31N 53°30' E 008°35'0 0.0
2017-Feb-15 03:31N 53°30' E 008°35'0 0.0
2017-Feb-15 02:31N 53°30' E 008°35'0 0.0
2017-Feb-15 01:31N 53°30' E 008°35'0 0.0
2017-Feb-15 00:31N 53°30' E 008°35'0 0.0
2017-Feb-14 23:31N 53°30' E 008°35'0 0.0
2017-Feb-14 22:31N 53°30' E 008°35'0 0.0
2017-Feb-14 21:31N 53°30' E 008°35'0 0.0
2017-Feb-14 20:31N 53°30' E 008°35'0 0.0
2017-Feb-14 19:31N 53°30' E 008°35'0 0.0
2017-Feb-14 18:31N 53°30' E 008°35'0 0.0
2017-Feb-14 17:31N 53°30' E 008°35'0 0.0
2017-Feb-14 16:31N 53°30' E 008°35'0 0.0
2017-Feb-14 15:31N 53°30' E 008°35'0 0.0
2017-Feb-14 14:31N 53°30' E 008°35'0 0.0
2017-Feb-14 13:31N 53°30' E 008°35'0 0.0
2017-Feb-14 12:31N 53°30' E 008°35'0 0.0
2017-Feb-14 11:31N 53°30' E 008°35'0 0.0
2017-Feb-14 10:31N 53°30' E 008°35'0 0.0
2017-Feb-14 09:31N 53°30' E 008°35'0 0.0
2017-Feb-14 08:31N 53°30' E 008°35'0 0.0
2017-Feb-14 07:31N 53°30' E 008°35'0 0.0
2017-Feb-14 06:34N 53°30' E 008°35'0 0.0
2017-Feb-14 05:33N 53°30' E 008°35'0 0.0
2017-Feb-14 04:33N 53°30' E 008°35'0 0.0
2017-Feb-14 03:33N 53°30' E 008°35'0 0.0
2017-Feb-14 02:33N 53°30' E 008°35'0 0.0
2017-Feb-14 01:33N 53°30' E 008°35'0 0.0
2017-Feb-14 00:33N 53°30' E 008°35'0 0.0
2017-Feb-13 23:33N 53°30' E 008°35'0 0.0
2017-Feb-13 22:33N 53°30' E 008°35'0 0.0
2017-Feb-13 21:33N 53°30' E 008°35'0 0.0
2017-Feb-13 20:33N 53°30' E 008°35'0 0.0
2017-Feb-13 19:33N 53°30' E 008°35'0 0.0
2017-Feb-13 18:33N 53°30' E 008°35'0 0.0
2017-Feb-13 17:33N 53°30' E 008°35'2 2.0
2017-Feb-13 16:33N 53°32' E 008°35'4 3.5
2017-Feb-13 15:33N 53°35' E 008°31'1010.1
2017-Feb-13 14:33N 53°42' E 008°19'1010.4
2017-Feb-13 13:33N 53°49' E 008°07'8 7.7
2017-Feb-13 12:33N 53°56' E 008°02'8 8.3
2017-Feb-13 11:33N 54°00' E 008°14'9 9.1
2017-Feb-13 10:33N 53°59' E 008°29'9 9.2
2017-Feb-13 09:33N 53°53' E 008°42'1211.9
2017-Feb-13 08:34N 53°52' E 009°02'4 4.3
2017-Feb-13 07:34N 53°54' E 009°09'6 5.7
2017-Feb-13 06:33N 53°58' E 009°15'8 8.4
2017-Feb-13 05:33N 54°06' E 009°20'48 5.9
2017-Feb-12 21:24N 54°33' E 010°29'910.8
2017-Feb-12 20:34N 54°35' E 010°44'1212.1
2017-Feb-12 19:34N 54°36' E 011°04'1111.5
2017-Feb-12 18:34N 54°33' E 011°23'1111.0
2017-Feb-12 17:34N 54°29' E 011°41'1110.9
2017-Feb-12 16:33N 54°27' E 011°60'10 9.9
2017-Feb-12 15:34N 54°32' E 012°14'5710.9
2017-Feb-12 10:20N 54°41' E 013°51'910.9
2017-Feb-12 09:29N 54°40' E 014°07'1110.7
2017-Feb-12 08:27N 54°38' E 014°26'  

Dump ship's entire track history